Terminal Aerodrome Forecast
Issued by NWS Lake Charles, LA

Home | Current Version | Previous Version | Text Only | Print | Product List | Glossary On
Versions: 1 2 3 4 5 6 7 8 9 10 11 12 13
000
FTUS44 KLCH 251127
TAFLFT
TAF
KLFT 251127Z 2512/2612 VRB03KT P6SM VCSH FEW025 SCT200
     FM251500 19005KT P6SM VCTS FEW020CB SCT035 BKN060
      TEMPO 2516/2520 3SM SHRA BKN020 OVC035
     FM260100 VRB03KT P6SM FEW050 SCT120=

USA.gov is the U.S. government's official web portal to all federal, state and local government web resources and services.